createdAt,value
2018-07-20T00:00:31.251Z,29.39
2018-07-20T00:01:31.280Z,29.37
2018-07-20T00:02:31.311Z,29.35
2018-07-20T00:03:31.341Z,29.46
2018-07-20T00:04:31.372Z,29.39
2018-07-20T00:05:31.401Z,29.39
2018-07-20T00:06:31.428Z,29.42
2018-07-20T00:07:31.489Z,29.39
2018-07-20T00:08:31.488Z,29.39
2018-07-20T00:09:31.518Z,29.39
2018-07-20T00:10:31.546Z,29.42
2018-07-20T00:11:31.579Z,29.35
2018-07-20T00:12:31.606Z,29.43
2018-07-20T00:13:31.635Z,29.35
2018-07-20T00:14:31.665Z,29.39
2018-07-20T00:15:31.694Z,29.34
2018-07-20T00:16:31.725Z,29.40
2018-07-20T00:17:31.753Z,29.40
2018-07-20T00:18:31.782Z,29.39
2018-07-20T00:19:31.812Z,29.39
2018-07-20T00:20:31.842Z,29.39
2018-07-20T00:21:31.871Z,29.40
2018-07-20T00:22:31.901Z,29.34
2018-07-20T00:23:31.931Z,29.34
2018-07-20T00:24:31.961Z,29.35
2018-07-20T00:25:31.989Z,29.39
2018-07-20T00:26:32.019Z,29.35
2018-07-20T00:27:32.049Z,29.40
2018-07-20T00:28:32.080Z,29.35
2018-07-20T00:29:32.108Z,29.32
2018-07-20T00:30:32.138Z,29.34
2018-07-20T00:31:32.168Z,29.43
2018-07-20T00:32:32.198Z,29.34
2018-07-20T00:33:32.225Z,29.32
2018-07-20T00:34:32.255Z,29.31
2018-07-20T00:35:32.286Z,29.35
2018-07-20T00:36:32.315Z,29.32
2018-07-20T00:37:32.344Z,29.28
2018-07-20T00:38:32.373Z,29.34
2018-07-20T00:39:32.404Z,29.32
2018-07-20T00:40:32.434Z,29.32
2018-07-20T00:41:32.462Z,29.35
2018-07-20T00:42:32.496Z,29.32
2018-07-20T00:43:32.523Z,29.32
2018-07-20T00:44:32.551Z,29.34
2018-07-20T00:45:32.580Z,29.28
2018-07-20T00:46:32.612Z,29.37
2018-07-20T00:47:32.640Z,29.28
2018-07-20T00:48:32.670Z,29.34
2018-07-20T00:49:32.699Z,29.32
2018-07-20T00:50:32.728Z,29.37
2018-07-20T00:51:32.775Z,29.31
2018-07-20T00:52:32.788Z,29.34
2018-07-20T00:53:32.817Z,29.40
2018-07-20T00:54:32.847Z,29.30
2018-07-20T00:55:32.877Z,29.32
2018-07-20T00:56:32.906Z,29.32
2018-07-20T00:57:32.934Z,29.30
2018-07-20T00:58:32.965Z,29.39
2018-07-20T00:59:32.999Z,29.35
2018-07-20T01:00:33.025Z,29.39
2018-07-20T01:01:33.053Z,29.32
2018-07-20T01:02:33.083Z,29.34
2018-07-20T01:03:33.113Z,29.32
2018-07-20T01:04:33.142Z,29.35
2018-07-20T01:05:33.318Z,29.32
2018-07-20T01:06:33.201Z,29.34
2018-07-20T01:07:33.236Z,29.31
2018-07-20T01:08:33.294Z,29.30
2018-07-20T01:09:33.292Z,29.31
2018-07-20T01:10:33.319Z,29.34
2018-07-20T01:11:33.349Z,29.32
2018-07-20T01:12:33.378Z,29.30
2018-07-20T01:13:33.407Z,29.37
2018-07-20T01:14:33.437Z,29.32
2018-07-20T01:15:33.467Z,29.40
2018-07-20T01:16:33.497Z,29.35
2018-07-20T01:17:33.525Z,29.30
2018-07-20T01:18:33.556Z,29.37
2018-07-20T01:19:33.585Z,29.31
2018-07-20T01:20:33.615Z,29.27
2018-07-20T01:21:33.644Z,29.37
2018-07-20T01:22:33.673Z,29.30
2018-07-20T01:23:33.757Z,29.27
2018-07-20T01:24:33.767Z,29.28
2018-07-20T01:25:33.790Z,29.34
2018-07-20T01:26:33.815Z,29.28
2018-07-20T01:27:33.847Z,29.30
2018-07-20T01:28:33.866Z,29.35
2018-07-20T01:29:33.919Z,29.24
2018-07-20T01:30:33.909Z,29.22
2018-07-20T01:31:33.939Z,29.30
2018-07-20T01:32:33.991Z,29.35
2018-07-20T01:33:34.000Z,29.40
2018-07-20T01:34:34.028Z,29.40
2018-07-20T01:35:34.057Z,29.30
2018-07-20T01:36:34.090Z,29.37
2018-07-20T01:37:34.116Z,29.35
2018-07-20T01:38:34.146Z,29.35
2018-07-20T01:39:34.199Z,29.34
2018-07-20T01:40:34.205Z,29.35
2018-07-20T01:41:34.234Z,29.34
2018-07-20T01:42:34.263Z,29.28
2018-07-20T01:43:34.293Z,29.31
2018-07-20T01:44:34.326Z,29.34
2018-07-20T01:45:34.352Z,29.37
2018-07-20T01:46:34.382Z,29.39
2018-07-20T01:47:34.411Z,29.39
2018-07-20T01:48:34.441Z,29.31
2018-07-20T01:49:34.470Z,29.30
2018-07-20T01:50:34.500Z,29.32
2018-07-20T01:51:34.530Z,29.35
2018-07-20T01:52:34.559Z,29.30
2018-07-20T01:53:34.590Z,29.37
2018-07-20T01:54:34.618Z,29.39
2018-07-20T01:55:34.647Z,29.34
2018-07-20T01:56:34.677Z,29.34
2018-07-20T01:57:34.759Z,29.43
2018-07-20T01:58:34.736Z,29.42
2018-07-20T01:59:34.765Z,29.37
2018-07-20T02:00:34.834Z,29.34
2018-07-20T02:01:34.825Z,29.31
2018-07-20T02:02:34.868Z,29.31
2018-07-20T02:03:34.884Z,29.31
2018-07-20T02:04:34.923Z,29.31
2018-07-20T02:05:34.943Z,29.32
2018-07-20T02:06:34.972Z,29.39
2018-07-20T02:07:35.002Z,29.39
2018-07-20T02:08:35.043Z,29.39
2018-07-20T02:09:35.061Z,29.43
2018-07-20T02:10:35.091Z,29.35
2018-07-20T02:11:35.120Z,29.34
2018-07-20T02:12:35.151Z,29.31
2018-07-20T02:13:35.179Z,29.35
2018-07-20T02:14:35.208Z,29.30
2018-07-20T02:15:35.239Z,29.34
2018-07-20T02:16:35.296Z,29.32
2018-07-20T02:17:35.296Z,29.31
2018-07-20T02:18:35.331Z,29.32
2018-07-20T02:19:35.356Z,29.28
2018-07-20T02:20:35.387Z,29.35
2018-07-20T02:21:35.515Z,29.39
2018-07-20T02:22:35.473Z,29.34
2018-07-20T02:23:35.491Z,29.34
2018-07-20T02:24:35.504Z,29.30
2018-07-20T02:25:35.536Z,29.30
2018-07-20T02:26:35.563Z,29.40
2018-07-20T02:27:35.593Z,29.30
2018-07-20T02:28:35.633Z,29.27
2018-07-20T02:29:35.736Z,29.24
2018-07-20T02:30:35.681Z,29.34
2018-07-20T02:31:35.712Z,29.24
2018-07-20T02:32:35.740Z,29.32
2018-07-20T02:33:35.770Z,29.28
2018-07-20T02:34:35.801Z,29.27
2018-07-20T02:35:35.829Z,29.30
2018-07-20T02:36:35.859Z,29.30
2018-07-20T02:37:35.887Z,29.30
2018-07-20T02:38:35.918Z,29.30
2018-07-20T02:39:35.978Z,29.21
2018-07-20T02:40:35.979Z,29.25
2018-07-20T02:41:36.007Z,29.24
2018-07-20T02:42:36.036Z,29.28
2018-07-20T02:43:36.066Z,29.21
2018-07-20T02:44:36.095Z,29.22
2018-07-20T02:45:36.124Z,29.22
2018-07-20T02:46:36.154Z,29.21
2018-07-20T02:47:36.184Z,29.25
2018-07-20T02:48:36.214Z,29.27
2018-07-20T02:49:36.242Z,29.34
2018-07-20T02:50:36.274Z,29.32
2018-07-20T02:51:36.306Z,29.22
2018-07-20T02:52:36.332Z,29.31
2018-07-20T02:53:36.392Z,29.32
2018-07-20T02:54:36.391Z,29.31
2018-07-20T02:55:36.420Z,29.27
2018-07-20T02:56:36.474Z,29.28
2018-07-20T02:57:36.478Z,29.34
2018-07-20T02:58:36.509Z,29.34
2018-07-20T02:59:36.538Z,29.32
2018-07-20T03:00:36.569Z,29.35
2018-07-20T03:01:36.598Z,29.34
2018-07-20T03:02:36.627Z,29.34
2018-07-20T03:03:36.657Z,29.28
2018-07-20T03:04:36.686Z,29.34
2018-07-20T03:05:36.715Z,29.40
2018-07-20T03:06:36.744Z,29.34
2018-07-20T03:07:36.814Z,29.27
2018-07-20T03:08:36.827Z,29.39
2018-07-20T03:09:36.833Z,29.34
2018-07-20T03:10:36.871Z,29.39
2018-07-20T03:11:36.894Z,29.35
2018-07-20T03:12:36.923Z,29.27
2018-07-20T03:13:36.951Z,29.28
2018-07-20T03:14:36.986Z,29.27
2018-07-20T03:15:37.012Z,29.22
2018-07-20T03:16:37.045Z,29.27
2018-07-20T03:17:37.084Z,29.22
2018-07-20T03:18:37.099Z,29.32
2018-07-20T03:19:37.130Z,29.30
2018-07-20T03:20:37.160Z,29.32
2018-07-20T03:21:37.188Z,29.28
2018-07-20T03:22:37.218Z,29.24
2018-07-20T03:23:37.278Z,29.30
2018-07-20T03:24:37.279Z,29.35
2018-07-20T03:25:37.306Z,29.30
2018-07-20T03:26:37.335Z,29.34
2018-07-20T03:27:37.366Z,29.32
2018-07-20T03:28:37.396Z,29.31
2018-07-20T03:29:37.428Z,29.34
2018-07-20T03:30:37.454Z,29.40
2018-07-20T03:31:37.485Z,29.35
2018-07-20T03:32:37.539Z,29.35
2018-07-20T03:33:37.542Z,29.39
2018-07-20T03:34:37.576Z,29.39
2018-07-20T03:35:37.602Z,29.43
2018-07-20T03:36:37.631Z,29.43
2018-07-20T03:37:37.660Z,29.37
2018-07-20T03:38:37.689Z,29.39
2018-07-20T03:39:37.722Z,29.39
2018-07-20T03:40:37.765Z,29.42
2018-07-20T03:41:37.816Z,29.35
2018-07-20T03:42:37.809Z,29.42
2018-07-20T03:43:37.837Z,29.43
2018-07-20T03:44:37.867Z,29.34
2018-07-20T03:45:37.896Z,29.39
2018-07-20T03:46:37.926Z,29.42
2018-07-20T03:47:37.976Z,29.49
2018-07-20T03:48:37.988Z,29.49
2018-07-20T03:49:38.014Z,29.42
2018-07-20T03:50:38.044Z,29.49
2018-07-20T03:51:38.073Z,29.44
2018-07-20T03:52:38.108Z,29.40
2018-07-20T03:53:38.135Z,29.47
2018-07-20T03:54:38.162Z,29.53
2018-07-20T03:55:38.192Z,29.55
2018-07-20T03:56:38.221Z,29.53
2018-07-20T03:57:38.251Z,29.50
2018-07-20T03:58:38.283Z,29.58
2018-07-20T03:59:38.310Z,29.50
2018-07-20T04:00:38.339Z,29.55
2018-07-20T04:01:38.401Z,29.53
2018-07-20T04:02:38.399Z,29.50
2018-07-20T04:03:38.428Z,29.57
2018-07-20T04:04:38.457Z,29.53
2018-07-20T04:05:38.488Z,29.57
2018-07-20T04:06:38.516Z,29.52
2018-07-20T04:07:38.546Z,29.55
2018-07-20T04:08:38.576Z,29.57
2018-07-20T04:09:38.605Z,29.55
2018-07-20T04:10:38.634Z,29.52
2018-07-20T04:11:38.664Z,29.55
2018-07-20T04:12:38.694Z,29.55
2018-07-20T04:13:38.722Z,29.58
2018-07-20T04:14:38.752Z,29.53
2018-07-20T04:15:38.782Z,29.57
2018-07-20T04:16:38.812Z,29.59
2018-07-20T04:17:38.841Z,29.57
2018-07-20T04:18:38.905Z,29.57
2018-07-20T04:19:38.904Z,29.57
2018-07-20T04:20:38.932Z,29.61
2018-07-20T04:21:38.987Z,29.55
2018-07-20T04:22:38.989Z,29.58
2018-07-20T04:23:39.018Z,29.57
2018-07-20T04:24:39.048Z,29.50
2018-07-20T04:25:39.076Z,29.50
2018-07-20T04:26:39.142Z,29.53
2018-07-20T04:27:39.136Z,29.57
2018-07-20T04:28:39.166Z,29.55
2018-07-20T04:29:39.195Z,29.61
2018-07-20T04:30:39.226Z,29.55
2018-07-20T04:31:39.257Z,29.58
2018-07-20T04:32:39.284Z,29.61
2018-07-20T04:33:39.317Z,29.61
2018-07-20T04:34:39.343Z,29.55
2018-07-20T04:35:39.373Z,29.61
2018-07-20T04:36:39.404Z,29.55
2018-07-20T04:37:39.432Z,29.62
2018-07-20T04:38:39.461Z,29.67
2018-07-20T04:39:39.492Z,29.58
2018-07-20T04:40:39.521Z,29.59
2018-07-20T04:41:39.549Z,29.61
2018-07-20T04:42:39.579Z,29.71
2018-07-20T04:43:39.610Z,29.61
2018-07-20T04:44:39.639Z,29.61
2018-07-20T04:45:39.668Z,29.57
2018-07-20T04:46:39.699Z,29.74
2018-07-20T04:47:39.729Z,29.71
2018-07-20T04:48:39.772Z,29.79
2018-07-20T04:49:39.786Z,29.61
2018-07-20T04:50:39.856Z,29.62
2018-07-20T04:51:39.892Z,29.69
2018-07-20T04:52:39.876Z,29.62
2018-07-20T04:53:39.904Z,29.65
2018-07-20T04:54:39.934Z,29.71
2018-07-20T04:55:39.964Z,29.69
2018-07-20T04:56:39.994Z,29.62
2018-07-20T04:57:40.023Z,29.61
2018-07-20T04:58:40.085Z,29.59
2018-07-20T04:59:40.083Z,29.59
2018-07-20T05:00:40.112Z,29.57
2018-07-20T05:01:40.147Z,29.61
2018-07-20T05:02:40.172Z,29.58
2018-07-20T05:03:40.211Z,29.57
2018-07-20T05:04:40.230Z,29.52
2018-07-20T05:05:40.260Z,29.49
2018-07-20T05:06:40.289Z,29.52
2018-07-20T05:07:40.319Z,29.57
2018-07-20T05:08:40.349Z,29.52
2018-07-20T05:09:40.377Z,29.61
2018-07-20T05:10:40.407Z,29.68
2018-07-20T05:11:40.437Z,29.61
2018-07-20T05:12:40.467Z,29.57
2018-07-20T05:13:40.496Z,29.67
2018-07-20T05:14:40.526Z,29.58
2018-07-20T05:15:40.555Z,29.59
2018-07-20T05:16:40.585Z,29.62
2018-07-20T05:17:40.616Z,29.71
2018-07-20T05:18:40.679Z,29.65
2018-07-20T05:19:40.691Z,29.65
2018-07-20T05:20:40.705Z,29.73
2018-07-20T05:21:40.732Z,29.77
2018-07-20T05:22:40.762Z,29.74
2018-07-20T05:23:40.809Z,29.71
2018-07-20T05:24:40.822Z,29.71
2018-07-20T05:25:40.900Z,29.76
2018-07-20T05:26:40.884Z,29.71
2018-07-20T05:27:40.910Z,29.77
2018-07-20T05:28:40.940Z,29.73
2018-07-20T05:29:40.969Z,29.79
2018-07-20T05:30:40.999Z,29.79
2018-07-20T05:31:41.029Z,29.76
2018-07-20T05:32:41.086Z,29.87
2018-07-20T05:33:41.089Z,29.77
2018-07-20T05:34:41.117Z,29.74
2018-07-20T05:35:41.147Z,29.86
2018-07-20T05:36:41.179Z,29.81
2018-07-20T05:37:41.232Z,29.77
2018-07-20T05:38:41.236Z,29.80
2018-07-20T05:39:41.295Z,29.83
2018-07-20T05:40:41.295Z,29.83
2018-07-20T05:41:41.324Z,29.80
2018-07-20T05:42:41.359Z,29.80
2018-07-20T05:43:41.425Z,29.79
2018-07-20T05:44:41.414Z,29.83
2018-07-20T05:45:41.443Z,29.81
2018-07-20T05:46:41.472Z,29.89
2018-07-20T05:47:41.503Z,29.83
2018-07-20T05:48:41.532Z,29.86
2018-07-20T05:49:41.561Z,29.90
2018-07-20T05:50:41.593Z,29.84
2018-07-20T05:51:41.621Z,29.77
2018-07-20T05:52:41.651Z,29.90
2018-07-20T05:53:41.680Z,29.81
2018-07-20T05:54:41.744Z,29.80
2018-07-20T05:55:41.740Z,29.83
2018-07-20T05:56:41.770Z,29.80
2018-07-20T05:57:41.798Z,29.83
2018-07-20T05:58:41.828Z,29.80
2018-07-20T05:59:41.858Z,29.77
2018-07-20T06:00:41.889Z,29.80
2018-07-20T06:01:41.917Z,29.80
2018-07-20T06:02:41.946Z,29.79
2018-07-20T06:03:41.977Z,29.81
2018-07-20T06:04:42.007Z,29.83
2018-07-20T06:05:42.121Z,29.90
2018-07-20T06:06:42.066Z,29.86
2018-07-20T06:07:42.097Z,29.81
2018-07-20T06:08:42.131Z,29.83
2018-07-20T06:09:42.154Z,29.90
2018-07-20T06:10:42.184Z,29.81
2018-07-20T06:11:42.214Z,29.83
2018-07-20T06:12:42.244Z,29.86
2018-07-20T06:13:42.273Z,29.89
2018-07-20T06:14:42.303Z,29.84
2018-07-20T06:15:42.332Z,29.90
2018-07-20T06:16:42.363Z,29.86
2018-07-20T06:17:42.417Z,29.89
2018-07-20T06:18:42.422Z,29.83
2018-07-20T06:19:42.452Z,29.81
2018-07-20T06:20:42.481Z,29.86
2018-07-20T06:21:42.512Z,29.87
2018-07-20T06:22:42.608Z,29.87
2018-07-20T06:23:42.595Z,29.87
2018-07-20T06:24:42.600Z,29.86
2018-07-20T06:25:42.635Z,29.96
2018-07-20T06:26:42.659Z,29.90
2018-07-20T06:27:42.688Z,29.94
2018-07-20T06:28:42.718Z,29.95
2018-07-20T06:29:42.791Z,29.99
2018-07-20T06:30:42.777Z,29.87
2018-07-20T06:31:42.807Z,29.96
2018-07-20T06:32:42.836Z,29.95
2018-07-20T06:33:42.866Z,29.96
2018-07-20T06:34:42.896Z,29.94
2018-07-20T06:35:42.926Z,29.96
2018-07-20T06:36:42.957Z,29.95
2018-07-20T06:37:42.984Z,29.96
2018-07-20T06:38:43.016Z,29.96
2018-07-20T06:39:43.112Z,29.99
2018-07-20T06:40:43.106Z,30.01
2018-07-20T06:41:43.104Z,30.02
2018-07-20T06:42:43.157Z,29.98
2018-07-20T06:43:43.163Z,29.94
2018-07-20T06:44:43.193Z,30.03
2018-07-20T06:45:43.222Z,29.96
2018-07-20T06:46:43.252Z,29.98
2018-07-20T06:47:43.307Z,29.98
2018-07-20T06:48:43.312Z,29.99
2018-07-20T06:49:43.373Z,29.98
2018-07-20T06:50:43.372Z,29.96
2018-07-20T06:51:43.401Z,30.02
2018-07-20T06:52:43.430Z,30.08
2018-07-20T06:53:43.460Z,30.08
2018-07-20T06:54:43.489Z,29.95
2018-07-20T06:55:43.520Z,30.06
2018-07-20T06:56:43.550Z,29.94
2018-07-20T06:57:43.578Z,30.08
2018-07-20T06:58:43.642Z,29.92
2018-07-20T06:59:43.638Z,29.96
2018-07-20T07:00:43.668Z,30.06
2018-07-20T07:01:43.697Z,30.08
2018-07-20T07:02:43.727Z,30.06
2018-07-20T07:03:43.757Z,30.08
2018-07-20T07:04:43.787Z,30.06
2018-07-20T07:05:43.816Z,30.03
2018-07-20T07:06:43.846Z,30.06
2018-07-20T07:07:43.876Z,30.10
2018-07-20T07:08:43.906Z,30.03
2018-07-20T07:09:43.937Z,30.08
2018-07-20T07:10:43.965Z,30.08
2018-07-20T07:11:43.996Z,30.11
2018-07-20T07:12:44.027Z,30.06
2018-07-20T07:13:44.056Z,30.11
2018-07-20T07:14:44.085Z,30.05
2018-07-20T07:15:44.114Z,30.08
2018-07-20T07:16:44.163Z,30.08
2018-07-20T07:17:44.190Z,30.08
2018-07-20T07:18:44.202Z,30.01
2018-07-20T07:19:44.232Z,30.03
2018-07-20T07:20:44.262Z,30.10
2018-07-20T07:21:44.291Z,30.11
2018-07-20T07:22:44.321Z,30.10
2018-07-20T07:23:44.410Z,30.10
2018-07-20T07:24:44.381Z,30.10
2018-07-20T07:25:44.415Z,30.13
2018-07-20T07:26:44.440Z,30.05
2018-07-20T07:27:44.471Z,30.11
2018-07-20T07:28:44.505Z,30.08
2018-07-20T07:29:44.530Z,30.10
2018-07-20T07:30:44.560Z,30.16
2018-07-20T07:31:44.589Z,30.11
2018-07-20T07:32:44.619Z,30.16
2018-07-20T07:33:44.648Z,30.13
2018-07-20T07:34:44.678Z,30.13
2018-07-20T07:35:44.757Z,30.13
2018-07-20T07:36:44.738Z,30.11
2018-07-20T07:37:44.767Z,30.11
2018-07-20T07:38:44.797Z,30.20
2018-07-20T07:39:44.827Z,30.13
2018-07-20T07:40:44.856Z,30.10
2018-07-20T07:41:44.886Z,30.13
2018-07-20T07:42:44.917Z,30.17
2018-07-20T07:43:44.946Z,30.11
2018-07-20T07:44:44.976Z,30.18
2018-07-20T07:45:45.005Z,30.11
2018-07-20T07:46:45.039Z,30.14
2018-07-20T07:47:45.065Z,30.17
2018-07-20T07:48:45.095Z,30.17
2018-07-20T07:49:45.124Z,30.13
2018-07-20T07:50:45.155Z,30.23
2018-07-20T07:51:45.185Z,30.14
2018-07-20T07:52:45.214Z,30.16
2018-07-20T07:53:45.246Z,30.21
2018-07-20T07:54:45.316Z,30.05
2018-07-20T07:55:45.307Z,30.20
2018-07-20T07:56:45.333Z,30.18
2018-07-20T07:57:45.366Z,30.10
2018-07-20T07:58:45.397Z,30.16
2018-07-20T07:59:45.422Z,30.21
2018-07-20T08:00:45.490Z,30.18
2018-07-20T08:01:45.515Z,30.24
2018-07-20T08:02:45.511Z,30.08
2018-07-20T08:03:45.544Z,30.18
2018-07-20T08:04:45.571Z,30.23
2018-07-20T08:05:45.625Z,30.06
2018-07-20T08:06:45.631Z,30.14
2018-07-20T08:07:45.664Z,30.20
2018-07-20T08:08:45.691Z,30.14
2018-07-20T08:09:45.762Z,30.20
2018-07-20T08:10:45.769Z,30.13
2018-07-20T08:11:45.779Z,30.20
2018-07-20T08:12:45.810Z,30.16
2018-07-20T08:13:45.839Z,30.26
2018-07-20T08:14:45.869Z,30.17
2018-07-20T08:15:45.974Z,30.20
2018-07-20T08:16:45.929Z,30.16
2018-07-20T08:17:45.958Z,30.24
2018-07-20T08:18:45.989Z,30.17
2018-07-20T08:19:46.017Z,30.17
2018-07-20T08:20:46.048Z,30.21
2018-07-20T08:21:46.077Z,30.20
2018-07-20T08:22:46.118Z,30.23
2018-07-20T08:23:46.140Z,30.23
2018-07-20T08:24:46.167Z,30.18
2018-07-20T08:25:46.196Z,30.24
2018-07-20T08:26:46.230Z,30.18
2018-07-20T08:27:46.256Z,30.10
2018-07-20T08:28:46.286Z,30.23
2018-07-20T08:29:46.319Z,30.21
2018-07-20T08:30:46.383Z,30.23
2018-07-20T08:31:46.375Z,30.21
2018-07-20T08:32:46.405Z,30.17
2018-07-20T08:33:46.434Z,30.21
2018-07-20T08:34:46.464Z,30.24
2018-07-20T08:35:46.494Z,30.26
2018-07-20T08:36:46.525Z,30.23
2018-07-20T08:37:46.554Z,30.20
2018-07-20T08:38:46.583Z,30.27
2018-07-20T08:39:46.614Z,30.24
2018-07-20T08:40:46.644Z,30.20
2018-07-20T08:41:46.673Z,30.21
2018-07-20T08:42:46.703Z,30.23
2018-07-20T08:43:46.733Z,30.29
2018-07-20T08:44:46.766Z,30.23
2018-07-20T08:45:46.792Z,30.32
2018-07-20T08:46:46.831Z,30.21
2018-07-20T08:47:46.852Z,30.21
2018-07-20T08:48:46.882Z,30.21
2018-07-20T08:49:46.912Z,30.26
2018-07-20T08:50:46.942Z,30.23
2018-07-20T08:51:46.971Z,30.26
2018-07-20T08:52:47.002Z,30.33
2018-07-20T08:53:47.031Z,30.21
2018-07-20T08:54:47.091Z,30.21
2018-07-20T08:55:47.091Z,30.23
2018-07-20T08:56:47.122Z,30.31
2018-07-20T08:57:47.150Z,30.31
2018-07-20T08:58:47.182Z,30.23
2018-07-20T08:59:47.214Z,30.24
2018-07-20T09:00:47.240Z,30.26
2018-07-20T09:01:47.269Z,30.21
2018-07-20T09:02:47.300Z,30.31
2018-07-20T09:03:47.330Z,30.26
2018-07-20T09:04:47.360Z,30.31
2018-07-20T09:05:47.393Z,30.21
2018-07-20T09:06:47.421Z,30.27
2018-07-20T09:07:47.452Z,30.23
2018-07-20T09:08:47.481Z,30.24
2018-07-20T09:09:47.508Z,30.20
2018-07-20T09:10:47.538Z,30.24
2018-07-20T09:11:47.568Z,30.24
2018-07-20T09:12:47.598Z,30.24
2018-07-20T09:13:47.779Z,30.23
2018-07-20T09:14:47.657Z,30.23
2018-07-20T09:15:47.688Z,30.31
2018-07-20T09:16:47.728Z,30.24
2018-07-20T09:17:47.747Z,30.21
2018-07-20T09:18:47.777Z,30.24
2018-07-20T09:19:47.807Z,30.21
2018-07-20T09:20:47.944Z,30.23
2018-07-20T09:21:47.866Z,30.24
2018-07-20T09:22:47.897Z,30.21
2018-07-20T09:23:47.927Z,30.20
2018-07-20T09:24:47.966Z,30.21
2018-07-20T09:25:47.985Z,30.24
2018-07-20T09:26:48.015Z,30.23
2018-07-20T09:27:48.045Z,30.18
2018-07-20T09:28:48.075Z,30.21
2018-07-20T09:29:48.104Z,30.21
2018-07-20T09:30:48.134Z,30.21
2018-07-20T09:31:48.165Z,30.21
2018-07-20T09:32:48.195Z,30.21
2018-07-20T09:33:48.223Z,30.29
2018-07-20T09:34:48.253Z,30.21
2018-07-20T09:35:48.289Z,30.24
2018-07-20T09:36:48.314Z,30.21
2018-07-20T09:37:48.380Z,30.21
2018-07-20T09:38:48.372Z,30.21
2018-07-20T09:39:48.402Z,30.26
2018-07-20T09:40:48.433Z,30.18
2018-07-20T09:41:48.461Z,30.24
2018-07-20T09:42:48.517Z,30.24
2018-07-20T09:43:48.522Z,30.29
2018-07-20T09:44:48.552Z,30.24
2018-07-20T09:45:48.582Z,30.26
2018-07-20T09:46:48.611Z,30.21
2018-07-20T09:47:48.645Z,30.21
2018-07-20T09:48:48.673Z,30.23
2018-07-20T09:49:48.700Z,30.24
2018-07-20T09:50:48.730Z,30.29
2018-07-20T09:51:48.760Z,30.26
2018-07-20T09:52:48.798Z,30.24
2018-07-20T09:53:48.820Z,30.21
2018-07-20T09:54:48.852Z,30.33
2018-07-20T09:55:48.881Z,30.24
2018-07-20T09:56:48.910Z,30.23
2018-07-20T09:57:48.939Z,30.32
2018-07-20T09:58:49.007Z,30.21
2018-07-20T09:59:49.063Z,30.20
2018-07-20T10:00:49.031Z,30.35
2018-07-20T10:01:49.058Z,30.36
2018-07-20T10:02:49.088Z,30.24
2018-07-20T10:03:49.138Z,30.24
2018-07-20T10:04:49.190Z,30.32
2018-07-20T10:05:49.178Z,30.32
2018-07-20T10:06:49.210Z,30.24
2018-07-20T10:07:49.237Z,30.33
2018-07-20T10:08:49.267Z,30.32
2018-07-20T10:09:49.296Z,30.31
2018-07-20T10:10:49.327Z,30.35
2018-07-20T10:11:49.356Z,30.35
2018-07-20T10:12:49.387Z,30.32
2018-07-20T10:13:49.416Z,30.36
2018-07-20T10:14:49.445Z,30.32
2018-07-20T10:15:49.476Z,30.36
2018-07-20T10:16:49.507Z,30.32
2018-07-20T10:17:49.535Z,30.33
2018-07-20T10:18:49.565Z,30.32
2018-07-20T10:19:49.595Z,30.31
2018-07-20T10:20:49.627Z,30.32
2018-07-20T10:21:49.655Z,30.33
2018-07-20T10:22:49.713Z,30.31
2018-07-20T10:23:49.717Z,30.31
2018-07-20T10:24:49.769Z,30.35
2018-07-20T10:25:49.774Z,30.33
2018-07-20T10:26:49.804Z,30.31
2018-07-20T10:27:49.844Z,30.31
2018-07-20T10:28:49.864Z,30.33
2018-07-20T10:29:49.900Z,30.32
2018-07-20T10:30:49.923Z,30.38
2018-07-20T10:31:49.953Z,30.29
2018-07-20T10:32:49.983Z,30.39
2018-07-20T10:33:50.012Z,30.32
2018-07-20T10:34:50.043Z,30.35
2018-07-20T10:35:50.073Z,30.31
2018-07-20T10:36:50.103Z,30.33
2018-07-20T10:37:50.132Z,30.33
2018-07-20T10:38:50.163Z,30.35
2018-07-20T10:39:50.192Z,30.40
2018-07-20T10:40:50.222Z,30.40
2018-07-20T10:41:50.251Z,30.40
2018-07-20T10:42:50.281Z,30.43
2018-07-20T10:43:50.313Z,30.33
2018-07-20T10:44:50.341Z,30.35
2018-07-20T10:45:50.372Z,30.38
2018-07-20T10:46:50.417Z,30.36
2018-07-20T10:47:50.432Z,30.39
2018-07-20T10:48:50.461Z,30.39
2018-07-20T10:49:50.490Z,30.35
2018-07-20T10:50:50.520Z,30.49
2018-07-20T10:51:50.551Z,30.39
2018-07-20T10:52:50.591Z,30.36
2018-07-20T10:53:50.610Z,30.43
2018-07-20T10:54:50.640Z,30.36
2018-07-20T10:55:50.669Z,30.35
2018-07-20T10:56:50.701Z,30.43
2018-07-20T10:57:50.729Z,30.43
2018-07-20T10:58:50.759Z,30.44
2018-07-20T10:59:50.796Z,30.38
2018-07-20T11:00:50.819Z,30.44
2018-07-20T11:01:50.849Z,30.54
2018-07-20T11:02:50.899Z,30.40
2018-07-20T11:03:50.914Z,30.39
2018-07-20T11:04:50.939Z,30.33
2018-07-20T11:05:50.968Z,30.49
2018-07-20T11:06:51.011Z,30.48
2018-07-20T11:07:51.029Z,30.43
2018-07-20T11:08:51.058Z,30.40
2018-07-20T11:09:51.088Z,30.48
2018-07-20T11:10:51.118Z,30.54
2018-07-20T11:11:51.148Z,30.40
2018-07-20T11:12:51.178Z,30.36
2018-07-20T11:13:51.216Z,30.49
2018-07-20T11:14:51.237Z,30.39
2018-07-20T11:15:51.271Z,30.46
2018-07-20T11:16:51.298Z,30.39
2018-07-20T11:17:51.326Z,30.44
2018-07-20T11:18:51.381Z,30.49
2018-07-20T11:19:51.387Z,30.56
2018-07-20T11:20:51.420Z,30.44
2018-07-20T11:21:51.473Z,30.44
2018-07-20T11:22:51.476Z,30.48
2018-07-20T11:23:51.506Z,30.39
2018-07-20T11:24:51.537Z,30.48
2018-07-20T11:25:51.592Z,30.36
2018-07-20T11:26:51.596Z,30.49
2018-07-20T11:27:51.627Z,30.43
2018-07-20T11:28:51.657Z,30.40
2018-07-20T11:29:51.687Z,30.46
2018-07-20T11:30:51.748Z,30.36
2018-07-20T11:31:51.745Z,30.44
2018-07-20T11:32:51.775Z,30.46
2018-07-20T11:33:51.805Z,30.46
2018-07-20T11:34:51.836Z,30.48
2018-07-20T11:35:51.865Z,30.49
2018-07-20T11:36:51.895Z,30.46
2018-07-20T11:37:51.952Z,30.40
2018-07-20T11:38:51.967Z,30.44
2018-07-20T11:39:52.026Z,30.48
2018-07-20T11:40:52.054Z,30.46
2018-07-20T11:41:52.058Z,30.49
2018-07-20T11:42:52.075Z,30.51
2018-07-20T11:43:52.138Z,30.54
2018-07-20T11:44:52.135Z,30.51
2018-07-20T11:45:52.163Z,30.48
2018-07-20T11:46:52.194Z,30.46
2018-07-20T11:47:52.224Z,30.48
2018-07-20T11:48:52.255Z,30.49
2018-07-20T11:49:52.284Z,30.48
2018-07-20T11:50:52.314Z,30.51
2018-07-20T11:51:52.344Z,30.49
2018-07-20T11:52:52.374Z,30.52
2018-07-20T11:53:52.421Z,30.44
2018-07-20T11:54:52.434Z,30.48
2018-07-20T11:55:52.496Z,30.46
2018-07-20T11:56:52.510Z,30.51
2018-07-20T11:57:52.523Z,30.58
2018-07-20T11:58:52.605Z,30.44
2018-07-20T11:59:52.584Z,30.48
2018-07-20T12:00:52.614Z,30.44
2018-07-20T12:01:52.662Z,30.51
2018-07-20T12:02:52.674Z,30.48
2018-07-20T12:03:52.704Z,30.46
2018-07-20T12:04:52.734Z,30.46
2018-07-20T12:05:52.765Z,30.43
2018-07-20T12:06:52.831Z,30.46
2018-07-20T12:07:52.824Z,30.54
2018-07-20T12:08:52.852Z,30.43
2018-07-20T12:09:52.882Z,30.49
2018-07-20T12:10:52.913Z,30.55
2018-07-20T12:11:52.962Z,30.52
2018-07-20T12:12:52.972Z,30.49
2018-07-20T12:13:53.002Z,30.48
2018-07-20T12:14:53.032Z,30.49
2018-07-20T12:15:53.063Z,30.52
2018-07-20T12:16:53.093Z,30.51
2018-07-20T12:17:53.133Z,30.52
2018-07-20T12:18:53.168Z,30.54
2018-07-20T12:19:53.183Z,30.58
2018-07-20T12:20:53.212Z,30.49
2018-07-20T12:21:53.241Z,30.54
2018-07-20T12:22:53.271Z,30.55
2018-07-20T12:23:53.301Z,30.51
2018-07-20T12:24:53.343Z,30.51
2018-07-20T12:25:53.362Z,30.51
2018-07-20T12:26:53.394Z,30.55
2018-07-20T12:27:53.421Z,30.59
2018-07-20T12:28:53.452Z,30.52
2018-07-20T12:29:53.518Z,30.54
2018-07-20T12:30:53.512Z,30.56
2018-07-20T12:31:53.542Z,30.52
2018-07-20T12:32:53.605Z,30.56
2018-07-20T12:33:53.639Z,30.52
2018-07-20T12:34:53.634Z,30.55
2018-07-20T12:35:53.661Z,30.51
2018-07-20T12:36:53.692Z,30.51
2018-07-20T12:37:53.721Z,30.54
2018-07-20T12:38:53.751Z,30.55
2018-07-20T12:39:53.781Z,30.52
2018-07-20T12:40:53.812Z,30.51
2018-07-20T12:41:53.840Z,30.55
2018-07-20T12:42:53.870Z,30.46
2018-07-20T12:43:53.900Z,30.52
2018-07-20T12:44:53.930Z,30.55
2018-07-20T12:45:53.960Z,30.56
2018-07-20T12:46:53.991Z,30.52
2018-07-20T12:47:54.021Z,30.51
2018-07-20T12:48:54.051Z,30.48
2018-07-20T12:49:54.086Z,30.51
2018-07-20T12:50:54.112Z,30.52
2018-07-20T12:51:54.140Z,30.52
2018-07-20T12:52:54.187Z,30.56